METAR Formatted Surface Weather Observation
Issued by NWS

Home | Current Version | Previous Version | Text Only | Print | Product List | Glossary On
Versions: 1 2 3 4 5 6 7 8 9 10 11 12 13 14 15
000
SAUS46 KSEW 230258
MTRSMP
METAR KSMP 230256Z AUTO 23005KT 1 1/4SM BR OVC001 11/10 A3002 RMK
AO2 SLP157 T01110100 56003 $



USA.gov is the U.S. government's official web portal to all federal, state and local government web resources and services.